Time;durP1;ratioP1;P1;durP2;ratioP2;P2;SDS_P1;SDS_P2;PMS_P1;PMS_P2;Temp;Humidity;BMP_temperature;BMP_pressure;BME280_temperature;BME280_humidity;BME280_pressure;Samples;Min_cycle;Max_cycle;Signal;HPM_P1;HPM_P2
2022/12/26 00:00:29;;;;;;;4.97;3.30;;;;;;;7.40;100.00;100788.41;6121428;28;20645;-65
2022/12/26 00:03:51;;;;;;;2.93;2.73;;;;;;;7.51;100.00;100803.66;6112428;28;20235;-66
2022/12/26 00:07:12;;;;;;;5.97;4.13;;;;;;;7.52;100.00;100790.13;6134359;28;20239;-67
2022/12/26 00:10:32;;;;;;;7.67;3.97;;;;;;;7.54;100.00;100790.88;6134648;28;20278;-66
2022/12/26 00:13:55;;;;;;;6.57;4.10;;;;;;;7.64;100.00;100775.75;6122548;28;20231;-66
2022/12/26 00:17:17;;;;;;;3.83;3.03;;;;;;;7.72;100.00;100786.72;6128906;28;20256;-66
2022/12/26 00:20:38;;;;;;;5.40;3.63;;;;;;;7.74;100.00;100783.97;6137625;28;20364;-66
2022/12/26 00:24:00;;;;;;;6.17;5.23;;;;;;;7.65;100.00;100792.72;6114369;28;21173;-65
2022/12/26 00:27:21;;;;;;;4.03;3.53;;;;;;;7.68;100.00;100784.41;6129186;28;20239;-66
2022/12/26 00:30:42;;;;;;;7.30;4.67;;;;;;;7.68;100.00;100776.34;6117703;28;20488;-68
2022/12/26 00:34:04;;;;;;;10.77;3.87;;;;;;;7.45;100.00;100783.53;6113495;28;20242;-66
2022/12/26 00:37:25;;;;;;;5.03;4.27;;;;;;;7.40;100.00;100790.22;6130211;28;20239;-65
2022/12/26 00:40:45;;;;;;;4.73;4.00;;;;;;;7.37;100.00;100787.75;6115685;28;20254;-65
2022/12/26 00:44:06;;;;;;;5.23;4.60;;;;;;;7.32;100.00;100798.88;6115328;28;21018;-67
2022/12/26 00:47:27;;;;;;;6.30;4.50;;;;;;;7.25;100.00;100819.94;6125475;28;20239;-65
2022/12/26 00:50:50;;;;;;;8.57;3.87;;;;;;;7.32;100.00;100817.63;6132579;28;20259;-66
2022/12/26 00:54:11;;;;;;;8.23;4.77;;;;;;;7.44;100.00;100813.16;6121435;28;20227;-66
2022/12/26 00:57:31;;;;;;;6.80;3.50;;;;;;;7.28;100.00;100810.75;6125422;28;20235;-65
2022/12/26 01:00:52;;;;;;;5.73;4.40;;;;;;;7.30;100.00;100816.91;6121516;28;20243;-66
2022/12/26 01:04:13;;;;;;;4.63;3.73;;;;;;;7.37;100.00;100809.22;6113476;28;20232;-66
2022/12/26 01:07:37;;;;;;;8.13;4.90;;;;;;;7.35;100.00;100806.66;6147538;28;20230;-66
2022/12/26 01:10:58;;;;;;;5.87;3.47;;;;;;;7.24;100.00;100810.16;6128698;28;20258;-66
2022/12/26 01:14:18;;;;;;;10.30;5.10;;;;;;;7.37;100.00;100809.22;6116691;28;20231;-66
2022/12/26 01:17:39;;;;;;;6.10;3.47;;;;;;;7.44;100.00;100807.78;6114008;28;20243;-66
2022/12/26 01:21:02;;;;;;;9.13;5.10;;;;;;;7.56;100.00;100817.56;6130273;28;20618;-66
2022/12/26 01:24:24;;;;;;;10.77;5.13;;;;;;;7.48;100.00;100819.97;6119681;28;20535;-67
2022/12/26 01:27:46;;;;;;;5.67;4.27;;;;;;;7.37;100.00;100814.56;6133419;28;20234;-67
2022/12/26 01:31:07;;;;;;;5.07;4.57;;;;;;;7.52;100.00;100808.91;6121275;28;20232;-66
2022/12/26 01:34:27;;;;;;;4.90;3.97;;;;;;;7.67;100.00;100786.25;6113823;28;20323;-65
2022/12/26 01:37:48;;;;;;;6.90;4.03;;;;;;;7.71;100.00;100790.41;6131025;28;20661;-66
2022/12/26 01:41:18;;;;;;;10.53;4.70;;;;;;;7.67;100.00;100782.72;6128102;28;20227;-65
2022/12/26 01:44:58;;;;;;;5.87;3.67;;;;;;;7.51;100.00;100791.09;6117459;28;20247;-66
2022/12/26 01:48:22;;;;;;;8.27;4.67;;;;;;;7.33;100.00;100802.38;6111192;28;20247;-66
2022/12/26 01:51:47;;;;;;;7.57;3.83;;;;;;;7.35;100.00;100801.28;6138263;28;20244;-66
2022/12/26 01:55:12;;;;;;;6.40;3.57;;;;;;;7.34;100.00;100807.66;6134421;28;20240;-66
2022/12/26 01:58:38;;;;;;;5.40;3.07;;;;;;;7.35;100.00;100803.97;6128442;28;20255;-66
2022/12/26 02:02:00;;;;;;;7.00;3.70;;;;;;;7.31;100.00;100812.38;6132235;28;20223;-67
2022/12/26 02:05:35;;;;;;;4.10;2.97;;;;;;;7.47;100.00;100803.03;6128072;28;20238;-66
2022/12/26 02:08:56;;;;;;;7.60;3.30;;;;;;;7.48;100.00;100806.56;6121729;28;20238;-66
2022/12/26 02:12:21;;;;;;;6.97;4.43;;;;;;;7.59;100.00;100812.84;6137577;28;20265;-66
2022/12/26 02:15:44;;;;;;;7.97;4.33;;;;;;;7.51;100.00;100817.91;6122395;28;20547;-66
2022/12/26 02:19:12;;;;;;;6.70;5.17;;;;;;;7.40;100.00;100819.72;6117621;28;20261;-67
2022/12/26 02:23:17;;;;;;;7.73;4.73;;;;;;;7.20;100.00;100822.09;6122164;28;20547;-67
2022/12/26 02:27:09;;;;;;;7.73;5.47;;;;;;;7.15;100.00;100826.09;6115938;28;20236;-66
2022/12/26 02:30:39;;;;;;;11.93;6.27;;;;;;;7.17;100.00;100824.16;6125640;28;20231;-67
2022/12/26 02:34:12;;;;;;;8.97;5.27;;;;;;;7.21;100.00;100820.28;6115471;28;20235;-67
2022/12/26 02:37:50;;;;;;;5.97;5.03;;;;;;;7.20;100.00;100816.72;6125570;28;20229;-66
2022/12/26 02:41:23;;;;;;;8.73;6.53;;;;;;;7.18;100.00;100824.03;6135786;28;20310;-66
2022/12/26 02:48:43;;;;;;;8.03;4.83;;;;;;;7.15;100.00;100828.78;6122714;28;20243;-66
2022/12/26 03:14:39;;;;;;;6.90;4.57;;;;;;;7.56;100.00;100814.88;6134918;28;20238;-67
2022/12/26 03:18:04;;;;;;;7.37;3.73;;;;;;;7.51;100.00;100822.44;6121527;28;20235;-66
2022/12/26 03:21:28;;;;;;;7.97;4.30;;;;;;;7.44;100.00;100814.00;6120461;28;20626;-66
2022/12/26 03:28:27;;;;;;;6.67;4.20;;;;;;;7.39;100.00;100818.84;6117122;28;20239;-66
2022/12/26 03:31:47;;;;;;;6.53;4.53;;;;;;;7.40;100.00;100817.91;6128115;28;21009;-67
2022/12/26 03:35:12;;;;;;;8.33;3.73;;;;;;;7.34;100.00;100814.84;6135791;28;20242;-66
2022/12/26 03:38:50;;;;;;;5.13;4.50;;;;;;;7.35;100.00;100819.19;6130573;28;20657;-66
2022/12/26 04:20:03;;;;;;;6.80;5.40;;;;;;;7.48;100.00;100803.88;6133708;28;20234;-67
2022/12/26 04:45:48;;;;;;;7.27;5.07;;;;;;;7.51;100.00;100833.16;6124362;28;20231;-67
2022/12/26 04:53:00;;;;;;;7.90;4.60;;;;;;;7.49;100.00;100816.34;6127000;28;20259;-66
2022/12/26 04:56:21;;;;;;;6.37;4.33;;;;;;;7.52;100.00;100825.00;6121202;28;20235;-66
2022/12/26 04:59:42;;;;;;;7.10;4.50;;;;;;;7.59;100.00;100826.25;6131591;28;20273;-65
2022/12/26 05:10:22;;;;;;;6.40;5.03;;;;;;;7.59;100.00;100830.75;6122482;28;20247;-66
2022/12/26 05:13:43;;;;;;;6.27;4.53;;;;;;;7.63;100.00;100838.44;6110456;28;20255;-66
2022/12/26 05:31:41;;;;;;;5.80;4.43;;;;;;;7.71;100.00;100836.03;6096769;28;20229;-66
2022/12/26 05:35:01;;;;;;;6.30;4.67;;;;;;;7.75;100.00;100836.63;6116969;28;20230;-66
2022/12/26 05:38:24;;;;;;;5.40;3.73;;;;;;;7.75;100.00;100823.22;6119289;28;20244;-65
2022/12/26 05:41:46;;;;;;;5.60;4.20;;;;;;;7.77;100.00;100840.03;6123968;28;20491;-65
2022/12/26 05:45:08;;;;;;;5.77;4.03;;;;;;;7.77;100.00;100838.22;6124587;28;20231;-66
2022/12/26 05:48:29;;;;;;;6.30;4.37;;;;;;;7.77;100.00;100830.19;6112238;28;20602;-66
2022/12/26 05:51:50;;;;;;;8.83;4.87;;;;;;;7.79;100.00;100824.69;6135549;28;20542;-66
2022/12/26 05:55:11;;;;;;;10.17;5.00;;;;;;;7.80;100.00;100824.56;6148297;28;20541;-66
2022/12/26 05:58:33;;;;;;;6.73;4.93;;;;;;;7.81;100.00;100841.50;6108639;28;20228;-66
2022/12/26 06:01:54;;;;;;;6.83;4.93;;;;;;;7.82;100.00;100822.59;6126356;28;20826;-66
2022/12/26 06:05:15;;;;;;;6.83;5.50;;;;;;;7.82;100.00;100830.66;6125330;28;20259;-66
2022/12/26 06:08:36;;;;;;;7.60;6.23;;;;;;;7.85;100.00;100835.78;6124073;28;20238;-66
2022/12/26 06:11:57;;;;;;;6.83;5.37;;;;;;;7.90;100.00;100824.69;6135678;28;20228;-66
2022/12/26 06:15:19;;;;;;;6.80;5.50;;;;;;;7.87;100.00;100828.47;6129929;28;20355;-66
2022/12/26 06:18:40;;;;;;;6.03;5.13;;;;;;;7.89;100.00;100822.97;6115461;28;20227;-66
2022/12/26 06:22:02;;;;;;;11.67;5.93;;;;;;;7.88;100.00;100822.16;6132165;28;20283;-66
2022/12/26 06:25:23;;;;;;;9.53;6.70;;;;;;;7.90;100.00;100828.25;6131721;28;20235;-67
2022/12/26 06:28:46;;;;;;;5.97;5.20;;;;;;;7.91;100.00;100837.13;6116932;28;20238;-66
2022/12/26 06:32:08;;;;;;;8.73;5.83;;;;;;;7.91;100.00;100838.00;6119448;28;20232;-66
2022/12/26 06:35:28;;;;;;;7.93;4.90;;;;;;;7.91;100.00;100838.00;6130242;28;20322;-67
2022/12/26 06:38:50;;;;;;;7.83;6.73;;;;;;;7.94;100.00;100842.28;6125448;28;20258;-66
2022/12/26 06:42:10;;;;;;;6.93;5.00;;;;;;;7.96;100.00;100837.63;6132388;28;20239;-66
2022/12/26 06:45:31;;;;;;;7.03;5.50;;;;;;;7.96;100.00;100849.22;6124215;28;20226;-66
2022/12/26 06:48:54;;;;;;;5.83;5.13;;;;;;;7.97;100.00;100850.06;6132806;28;20234;-66
2022/12/26 06:52:15;;;;;;;4.77;4.27;;;;;;;7.97;100.00;100855.44;6153157;28;20472;-66
2022/12/26 06:55:36;;;;;;;4.10;3.70;;;;;;;8.01;100.00;100849.72;6124240;28;20235;-65
2022/12/26 06:58:58;;;;;;;5.23;4.70;;;;;;;8.01;100.00;100859.59;6128405;28;20232;-65
2022/12/26 07:02:19;;;;;;;8.50;5.93;;;;;;;8.04;100.00;100865.59;6124689;28;20369;-66
2022/12/26 07:05:41;;;;;;;7.20;4.90;;;;;;;8.08;100.00;100861.69;6119794;28;20232;-66
2022/12/26 07:09:05;;;;;;;4.47;3.97;;;;;;;8.07;100.00;100862.66;6103784;28;20508;-65
2022/12/26 07:12:25;;;;;;;6.60;4.63;;;;;;;8.13;100.00;100873.88;6118932;28;20236;-66
2022/12/26 07:15:46;;;;;;;4.57;3.87;;;;;;;8.11;100.00;100878.53;6122483;28;20243;-66
2022/12/26 07:19:09;;;;;;;6.00;4.60;;;;;;;8.09;100.00;100881.34;6119745;28;20248;-67
2022/12/26 07:22:31;;;;;;;7.07;4.30;;;;;;;8.12;100.00;100877.53;6137024;28;20326;-66
2022/12/26 07:25:52;;;;;;;6.73;5.43;;;;;;;8.16;100.00;100889.75;6146102;28;20783;-67
2022/12/26 07:29:14;;;;;;;6.23;4.10;;;;;;;8.18;100.00;100890.50;6119243;28;20301;-67
2022/12/26 07:32:35;;;;;;;7.00;4.40;;;;;;;8.17;100.00;100897.69;6123969;28;20227;-66
2022/12/26 07:35:59;;;;;;;8.07;5.10;;;;;;;8.17;100.00;100903.06;6116402;28;20231;-66
2022/12/26 07:39:21;;;;;;;7.00;4.67;;;;;;;8.24;100.00;100906.13;6125686;28;20678;-66
2022/12/26 07:42:42;;;;;;;7.27;5.47;;;;;;;8.20;100.00;100893.94;6118651;28;20228;-66
2022/12/26 07:46:04;;;;;;;6.30;4.00;;;;;;;8.23;100.00;100894.53;6102666;28;20928;-67
2022/12/26 07:49:25;;;;;;;8.27;4.60;;;;;;;8.28;100.00;100880.78;6122308;28;20581;-67
2022/12/26 07:52:46;;;;;;;5.90;5.40;;;;;;;8.30;100.00;100877.00;6107267;28;20232;-66
2022/12/26 07:56:08;;;;;;;7.57;5.77;;;;;;;8.33;100.00;100866.00;6127500;28;20231;-67
2022/12/26 07:59:29;;;;;;;6.70;5.80;;;;;;;8.32;100.00;100863.44;6123149;28;20610;-66
2022/12/26 08:02:51;;;;;;;8.40;6.10;;;;;;;8.36;100.00;100859.53;6122816;28;20303;-67
2022/12/26 08:06:12;;;;;;;8.43;5.60;;;;;;;8.38;100.00;100852.22;6112226;28;20549;-66
2022/12/26 08:09:33;;;;;;;8.73;7.77;;;;;;;8.40;100.00;100851.13;6136492;28;20235;-65
2022/12/26 08:12:55;;;;;;;8.43;6.70;;;;;;;8.42;100.00;100842.91;6119933;28;20236;-66
2022/12/26 08:16:17;;;;;;;7.43;6.63;;;;;;;8.47;100.00;100846.09;6107734;28;20228;-66
2022/12/26 08:19:38;;;;;;;10.80;7.37;;;;;;;8.52;100.00;100843.88;6112532;28;20236;-66
2022/12/26 08:22:59;;;;;;;8.50;7.70;;;;;;;8.52;100.00;100846.56;6119341;28;20236;-65
2022/12/26 08:26:22;;;;;;;11.13;7.77;;;;;;;8.54;100.00;100855.34;6130504;28;20236;-66
2022/12/26 08:29:44;;;;;;;10.17;7.17;;;;;;;8.55;100.00;100847.16;6129321;28;20227;-66
2022/12/26 08:33:05;;;;;;;6.83;6.13;;;;;;;8.57;100.00;100839.00;6122843;28;20224;-65
2022/12/26 08:36:26;;;;;;;8.97;7.37;;;;;;;8.60;100.00;100860.22;6127348;28;20235;-66
2022/12/26 08:39:47;;;;;;;8.13;7.33;;;;;;;8.65;100.00;100858.03;6116215;28;20236;-66
2022/12/26 08:43:08;;;;;;;10.13;7.60;;;;;;;8.64;100.00;100848.25;6123534;28;20235;-67
2022/12/26 08:46:30;;;;;;;10.27;6.67;;;;;;;8.66;100.00;100849.84;6118069;28;20274;-66
2022/12/26 08:49:51;;;;;;;9.03;7.30;;;;;;;8.65;100.00;100840.09;6134544;28;20255;-66
2022/12/26 08:53:11;;;;;;;8.63;7.27;;;;;;;8.65;100.00;100853.53;6133759;28;20275;-66
2022/12/26 08:56:32;;;;;;;9.40;6.80;;;;;;;8.66;100.00;100843.59;6119964;28;20236;-66
2022/12/26 08:59:53;;;;;;;11.83;7.93;;;;;;;8.66;100.00;100840.94;6119194;28;20602;-66
2022/12/26 09:03:16;;;;;;;7.37;6.60;;;;;;;8.64;100.00;100842.88;6107314;28;20239;-66
2022/12/26 09:06:39;;;;;;;7.27;6.57;;;;;;;8.65;100.00;100849.97;6128503;28;20253;-66
2022/12/26 09:10:00;;;;;;;8.90;6.07;;;;;;;8.66;100.00;100854.34;6122731;28;20254;-67
2022/12/26 09:13:21;;;;;;;6.80;6.10;;;;;;;8.68;100.00;100865.84;6124780;28;20254;-66
2022/12/26 09:16:45;;;;;;;9.47;7.07;;;;;;;8.67;100.00;100869.53;6143255;28;20517;-66
2022/12/26 09:20:08;;;;;;;9.73;7.43;;;;;;;8.65;100.00;100876.84;6110482;28;20223;-67
2022/12/26 09:23:30;;;;;;;6.83;6.13;;;;;;;8.67;100.00;100885.66;6118313;28;20809;-67
2022/12/26 09:26:52;;;;;;;9.40;6.43;;;;;;;8.70;100.00;100891.63;6127570;28;20252;-66
2022/12/26 09:30:14;;;;;;;11.80;7.63;;;;;;;8.70;100.00;100891.63;6133171;28;20603;-67
2022/12/26 09:33:36;;;;;;;6.80;5.90;;;;;;;8.70;100.00;100902.38;6113724;28;20771;-66
2022/12/26 09:36:58;;;;;;;7.47;6.57;;;;;;;8.72;100.00;100894.16;6139991;28;20235;-66
2022/12/26 09:40:23;;;;;;;7.00;6.30;;;;;;;8.73;100.00;100890.53;6124913;28;20613;-66
2022/12/26 09:44:00;;;;;;;6.03;5.43;;;;;;;8.72;100.00;100896.84;6112661;28;20639;-66
2022/12/26 09:47:31;;;;;;;7.40;5.00;;;;;;;8.73;100.00;100891.38;6119492;28;20235;-66
2022/12/26 09:50:52;;;;;;;7.27;5.47;;;;;;;8.76;100.00;100883.06;6126086;28;20271;-66
2022/12/26 09:54:21;;;;;;;6.10;5.27;;;;;;;8.81;100.00;100898.81;6111258;28;20236;-66
2022/12/26 09:57:46;;;;;;;8.53;6.23;;;;;;;8.84;100.00;100906.63;6139410;28;20241;-67
2022/12/26 10:01:11;;;;;;;8.93;7.07;;;;;;;8.83;100.00;100895.03;6141112;28;20440;-67
2022/12/26 10:04:32;;;;;;;6.23;5.47;;;;;;;8.85;100.00;100900.28;6119507;28;20235;-66
2022/12/26 10:07:59;;;;;;;7.77;5.17;;;;;;;8.91;99.84;100896.25;6127910;28;20242;-67
2022/12/26 10:11:30;;;;;;;9.33;5.47;;;;;;;8.88;100.00;100880.34;6109955;28;20239;-67
2022/12/26 10:14:56;;;;;;;7.37;6.67;;;;;;;8.90;99.59;100871.19;6116261;28;20235;-67
2022/12/26 10:18:33;;;;;;;10.30;7.07;;;;;;;8.90;99.53;100873.00;6108400;28;20651;-66
2022/12/26 10:22:05;;;;;;;8.23;6.97;;;;;;;8.92;99.75;100857.63;6143058;28;20322;-66
2022/12/26 10:25:41;;;;;;;6.90;5.70;;;;;;;8.92;99.49;100863.00;6120238;28;20236;-66
2022/12/26 10:29:12;;;;;;;5.97;4.60;;;;;;;8.91;99.79;100872.88;6111377;28;20672;-66
2022/12/26 10:32:37;;;;;;;7.83;6.53;;;;;;;8.91;99.28;100853.25;6123713;28;20235;-66
2022/12/26 10:35:59;;;;;;;5.73;5.17;;;;;;;8.91;99.73;100862.13;6136908;28;20228;-66
2022/12/26 10:39:24;;;;;;;6.40;4.77;;;;;;;8.92;99.69;100858.47;6115763;28;20223;-66
2022/12/26 10:42:50;;;;;;;6.00;5.00;;;;;;;8.96;99.60;100861.75;6117106;28;20275;-65
2022/12/26 10:46:54;;;;;;;7.80;5.97;;;;;;;8.98;99.05;100857.09;6120608;28;20619;-66
2022/12/26 10:50:17;;;;;;;9.40;5.77;;;;;;;8.98;98.95;100849.91;6134326;28;20258;-65
2022/12/26 10:53:42;;;;;;;8.63;4.83;;;;;;;9.07;98.86;100856.34;6107516;28;20336;-66
2022/12/26 10:57:04;;;;;;;4.87;4.10;;;;;;;9.09;98.71;100849.00;6126722;28;20250;-66
2022/12/26 11:00:28;;;;;;;8.33;5.87;;;;;;;9.08;98.34;100844.59;6119981;28;20550;-66
2022/12/26 11:03:56;;;;;;;9.20;6.33;;;;;;;9.12;98.65;100841.53;6110308;28;20575;-67
2022/12/26 11:07:18;;;;;;;7.53;5.53;;;;;;;9.08;97.98;100840.09;6151543;28;20253;-66
2022/12/26 11:10:39;;;;;;;6.23;4.50;;;;;;;9.11;97.83;100825.53;6121742;28;20311;-66
2022/12/26 11:14:02;;;;;;;8.57;4.77;;;;;;;9.13;97.42;100826.25;6112431;28;20235;-67
2022/12/26 11:17:28;;;;;;;4.37;3.97;;;;;;;9.15;96.82;100825.16;6127472;28;20227;-67
2022/12/26 11:20:50;;;;;;;6.83;4.57;;;;;;;9.14;96.69;100820.75;6123323;28;20231;-66
2022/12/26 11:24:18;;;;;;;7.13;4.67;;;;;;;9.13;96.76;100827.13;6133441;28;20234;-66
2022/12/26 11:27:40;;;;;;;4.87;4.30;;;;;;;9.13;96.88;100819.06;6118781;28;20218;-67
2022/12/26 11:31:05;;;;;;;4.87;4.37;;;;;;;9.14;96.04;100812.69;6127685;28;20503;-66
2022/12/26 11:34:31;;;;;;;5.33;4.60;;;;;;;9.17;95.76;100815.13;6124217;28;20266;-65
2022/12/26 11:37:56;;;;;;;4.97;3.73;;;;;;;9.15;95.13;100800.97;6128704;28;20232;-66
2022/12/26 11:41:31;;;;;;;3.90;2.97;;;;;;;9.18;95.55;100803.38;6120748;28;20313;-65
2022/12/26 11:44:55;;;;;;;8.40;5.30;;;;;;;9.19;95.34;100783.56;6121727;28;20239;-67
2022/12/26 11:48:23;;;;;;;6.20;5.57;;;;;;;9.18;95.56;100795.31;6112793;28;20228;-66
2022/12/26 11:51:48;;;;;;;3.47;3.00;;;;;;;9.23;94.99;100790.41;6124319;28;20657;-66
2022/12/26 11:55:33;;;;;;;4.80;4.30;;;;;;;9.24;94.66;100786.72;6126479;28;20321;-67
2022/12/26 11:59:15;;;;;;;5.37;4.83;;;;;;;9.29;94.12;100789.88;6110805;28;20629;-66
2022/12/26 12:02:39;;;;;;;6.70;3.63;;;;;;;9.31;93.97;100776.28;6120434;28;20236;-66
2022/12/26 12:06:05;;;;;;;5.60;5.10;;;;;;;9.31;94.24;100754.78;6127486;28;20232;-66
2022/12/26 12:09:36;;;;;;;3.93;3.60;;;;;;;9.33;94.83;100780.56;6138510;28;20825;-66
2022/12/26 12:13:05;;;;;;;5.50;4.43;;;;;;;9.25;95.37;100782.19;6137559;28;20238;-66
2022/12/26 12:16:47;;;;;;;6.20;5.03;;;;;;;9.23;95.60;100770.72;6131974;28;20239;-66
2022/12/26 12:20:23;;;;;;;6.70;4.90;;;;;;;9.06;98.34;100766.75;6124187;28;20262;-67
2022/12/26 12:24:00;;;;;;;5.27;3.37;;;;;;;8.99;99.50;100765.56;6118500;28;20242;-66
2022/12/26 12:27:27;;;;;;;6.17;4.00;;;;;;;8.99;99.84;100745.91;6121058;28;20236;-66
2022/12/26 12:30:59;;;;;;;6.00;5.23;;;;;;;9.00;100.00;100767.28;6123756;28;20260;-67
2022/12/26 12:34:31;;;;;;;6.27;4.47;;;;;;;9.02;99.96;100764.47;6121036;28;20235;-67
2022/12/26 12:38:23;;;;;;;6.47;4.83;;;;;;;9.05;99.88;100762.38;6127192;28;20232;-66
2022/12/26 12:41:58;;;;;;;4.30;3.90;;;;;;;9.16;98.64;100777.59;6125154;28;20242;-66
2022/12/26 12:45:26;;;;;;;5.60;3.87;;;;;;;9.22;97.96;100775.22;6120778;28;20239;-66
2022/12/26 12:49:23;;;;;;;3.43;3.07;;;;;;;9.28;97.48;100773.88;6118683;28;20242;-66
2022/12/26 12:52:53;;;;;;;5.87;3.60;;;;;;;9.28;97.20;100769.31;6120637;28;20677;-66
2022/12/26 12:56:27;;;;;;;3.97;2.73;;;;;;;9.28;96.87;100769.31;6114379;28;20231;-67
2022/12/26 13:00:10;;;;;;;3.47;3.17;;;;;;;9.26;96.91;100768.59;6123680;28;20265;-66
2022/12/26 13:03:39;;;;;;;4.23;2.97;;;;;;;9.36;95.74;100761.47;6102542;28;20232;-66
2022/12/26 13:07:07;;;;;;;4.10;3.73;;;;;;;9.51;94.71;100776.28;6126147;28;20235;-66
2022/12/26 13:10:31;;;;;;;3.17;2.60;;;;;;;9.73;93.81;100767.22;6124655;28;20237;-67
2022/12/26 13:13:55;;;;;;;4.10;3.50;;;;;;;9.63;93.45;100771.69;6109996;28;20258;-67
2022/12/26 13:17:22;;;;;;;3.50;3.03;;;;;;;9.72;92.13;100784.34;6124528;28;20232;-66
2022/12/26 13:20:47;;;;;;;3.17;2.87;;;;;;;10.75;86.36;100786.75;6120735;28;20508;-66
2022/12/26 13:24:25;;;;;;;2.53;2.30;;;;;;;10.55;86.88;100778.78;6120522;28;20251;-67
2022/12/26 13:27:48;;;;;;;3.13;1.97;;;;;;;9.98;88.57;100784.78;6120828;28;20235;-66
2022/12/26 13:31:09;;;;;;;3.50;2.33;;;;;;;9.72;86.98;100807.75;6129977;28;20607;-66
2022/12/26 13:34:30;;;;;;;1.80;1.70;;;;;;;9.68;85.86;100814.38;6119766;28;20235;-67
2022/12/26 13:37:57;;;;;;;3.30;1.50;;;;;;;9.68;85.97;100819.75;6120671;28;20239;-65
2022/12/26 13:45:36;;;;;;;1.87;1.77;;;;;;;9.40;82.67;100869.69;6119337;28;20242;-65
2022/12/26 13:48:58;;;;;;;1.40;0.73;;;;;;;9.23;80.76;100859.47;6109052;28;20235;-66
2022/12/26 13:52:34;;;;;;;0.50;0.50;;;;;;;9.06;80.96;100863.56;6125815;28;20526;-67
2022/12/26 13:55:56;;;;;;;0.70;0.70;;;;;;;8.80;81.61;100884.50;6127101;28;20231;-66
2022/12/26 13:59:27;;;;;;;0.77;0.77;;;;;;;8.53;83.78;100893.97;6132492;28;20226;-66
2022/12/26 14:03:28;;;;;;;0.63;0.50;;;;;;;8.52;84.28;100898.47;6114103;28;20538;-67
2022/12/26 14:07:03;;;;;;;0.97;0.80;;;;;;;8.48;84.86;100914.97;6113755;28;20807;-65
2022/12/26 14:10:32;;;;;;;2.07;0.80;;;;;;;8.39;84.75;100937.16;6117859;28;20227;-67
2022/12/26 14:14:07;;;;;;;0.87;0.73;;;;;;;8.38;86.98;100947.09;6110450;28;20234;-66
2022/12/26 14:17:40;;;;;;;1.97;0.70;;;;;;;7.92;89.28;100952.44;6128874;28;20512;-67
2022/12/26 14:21:39;;;;;;;0.70;0.70;;;;;;;7.88;90.53;100950.97;6111319;28;20235;-67
2022/12/26 14:25:09;;;;;;;0.70;0.70;;;;;;;8.00;90.20;100968.81;6133941;28;20246;-67
2022/12/26 14:28:44;;;;;;;0.90;0.70;;;;;;;7.96;88.15;100964.66;6117404;28;20231;-67
2022/12/26 14:32:15;;;;;;;1.43;1.13;;;;;;;7.85;87.21;100996.81;6122100;28;20223;-66
2022/12/26 14:35:45;;;;;;;1.07;0.97;;;;;;;7.77;88.37;100996.53;6123784;28;20395;-67
2022/12/26 14:39:21;;;;;;;1.80;0.93;;;;;;;7.72;87.27;101004.06;6111489;28;20258;-67
2022/12/26 14:43:15;;;;;;;3.07;1.17;;;;;;;7.58;87.76;101003.38;6119485;28;20223;-66
2022/12/26 14:46:57;;;;;;;3.33;1.00;;;;;;;7.57;88.73;101031.19;6110524;28;20335;-67
2022/12/26 14:50:40;;;;;;;9.03;2.13;;;;;;;7.44;88.46;101035.75;6135227;28;20917;-67
2022/12/26 14:54:35;;;;;;;4.70;1.43;;;;;;;7.41;90.06;101042.19;6118868;28;20227;-66
2022/12/26 14:57:56;;;;;;;6.07;1.93;;;;;;;7.45;89.13;101026.75;6128095;28;20232;-66
2022/12/26 15:01:59;;;;;;;4.87;1.53;;;;;;;7.14;91.10;101042.34;6118837;28;20228;-66
2022/12/26 15:05:23;;;;;;;2.47;1.17;;;;;;;7.28;91.26;101067.31;6120363;28;20313;-66
2022/12/26 15:09:02;;;;;;;2.57;2.37;;;;;;;7.27;91.36;101077.19;6121277;28;20243;-66
2022/12/26 15:12:58;;;;;;;4.10;2.43;;;;;;;7.26;89.68;101095.09;6145435;28;20223;-65
2022/12/26 15:16:27;;;;;;;2.00;1.27;;;;;;;7.17;89.64;101097.59;6107576;28;20255;-66
2022/12/26 15:20:27;;;;;;;1.20;0.80;;;;;;;7.07;89.54;101107.25;6127883;28;20267;-66
2022/12/26 15:24:12;;;;;;;3.27;1.00;;;;;;;7.05;89.26;101096.63;6115581;28;20231;-66
2022/12/26 15:27:59;;;;;;;2.53;0.80;;;;;;;7.05;89.42;101103.81;6119249;28;20231;-66
2022/12/26 15:31:41;;;;;;;2.27;1.07;;;;;;;7.04;89.48;101105.63;6117758;28;20538;-66
2022/12/26 15:35:14;;;;;;;1.67;1.40;;;;;;;6.92;89.36;101133.31;6133965;28;20248;-66
2022/12/26 15:38:42;;;;;;;3.40;2.43;;;;;;;6.96;88.57;101120.53;6116911;28;21644;-66
2022/12/26 15:42:17;;;;;;;4.43;2.23;;;;;;;6.94;86.33;101128.69;6133488;28;20235;-66
2022/12/26 15:45:46;;;;;;;4.10;1.37;;;;;;;6.82;86.90;101121.47;6111620;28;20247;-66
2022/12/26 15:49:27;;;;;;;3.97;2.07;;;;;;;6.75;87.99;101127.38;6112481;28;20223;-66
2022/12/26 15:52:56;;;;;;;3.43;2.27;;;;;;;6.59;88.72;101132.09;6109662;28;20235;-66
2022/12/26 15:56:41;;;;;;;4.37;2.00;;;;;;;6.59;88.59;101132.09;6120029;28;20230;-66
2022/12/26 16:00:13;;;;;;;12.50;4.20;;;;;;;6.57;88.59;101144.72;6112196;28;20242;-66
2022/12/26 16:03:41;;;;;;;3.23;1.57;;;;;;;6.60;88.17;101153.41;6095814;28;20248;-66
2022/12/26 16:07:08;;;;;;;4.67;1.67;;;;;;;6.51;88.07;101151.34;6118546;28;20235;-66
2022/12/26 16:10:32;;;;;;;6.50;2.97;;;;;;;6.62;86.83;101155.97;6099261;28;20261;-66
2022/12/26 16:13:59;;;;;;;4.13;1.90;;;;;;;6.57;85.90;101166.97;6093517;28;20236;-66
2022/12/26 16:17:22;;;;;;;7.83;2.70;;;;;;;6.62;85.71;101174.72;6090391;28;20245;-66
2022/12/26 16:24:25;;;;;;;7.47;3.03;;;;;;;6.38;84.71;101172.72;6098365;28;20240;-65
2022/12/26 16:27:49;;;;;;;6.80;2.73;;;;;;;6.32;83.51;101186.50;6106201;28;20236;-65
2022/12/26 16:31:18;;;;;;;4.50;2.57;;;;;;;6.31;83.07;101187.50;6098864;28;20227;-66
2022/12/26 16:34:40;;;;;;;1.77;1.57;;;;;;;6.22;83.19;101184.53;6096505;28;20238;-66
2022/12/26 16:38:03;;;;;;;5.33;2.57;;;;;;;6.21;83.35;101185.53;6110188;28;20235;-66
2022/12/26 16:41:26;;;;;;;3.93;2.90;;;;;;;6.09;82.72;101189.84;6112582;28;20220;-65
2022/12/26 16:44:47;;;;;;;5.00;3.03;;;;;;;6.12;82.49;101189.66;6112619;28;20251;-65
2022/12/26 16:48:09;;;;;;;4.37;2.97;;;;;;;6.13;82.50;101201.22;6106649;28;20653;-65
2022/12/26 16:51:39;;;;;;;3.50;2.83;;;;;;;6.22;82.73;101197.94;6113276;28;20611;-65
2022/12/26 16:55:25;;;;;;;2.60;2.37;;;;;;;6.17;82.27;101208.97;6117175;28;20231;-65
2022/12/26 16:58:46;;;;;;;3.50;2.30;;;;;;;6.18;82.54;101201.78;6112749;28;20243;-65
2022/12/26 17:02:16;;;;;;;6.00;1.67;;;;;;;6.24;81.79;101199.56;6114734;28;20239;-64
2022/12/26 17:05:41;;;;;;;6.40;1.80;;;;;;;6.15;82.27;101210.00;6114344;28;20330;-65
2022/12/26 17:09:08;;;;;;;2.47;2.27;;;;;;;6.08;82.51;101222.94;6105704;28;20235;-65
2022/12/26 17:12:33;;;;;;;3.87;1.60;;;;;;;6.03;82.56;101226.88;6112409;28;20236;-65
2022/12/26 17:15:57;;;;;;;4.93;2.40;;;;;;;5.98;82.78;101234.31;6113245;28;20342;-66
2022/12/26 17:19:19;;;;;;;3.70;1.60;;;;;;;5.97;82.88;101238.81;6105453;28;20255;-65
2022/12/26 17:22:40;;;;;;;3.27;1.67;;;;;;;5.97;82.98;101243.28;6111539;28;20602;-65
2022/12/26 17:26:18;;;;;;;3.53;1.40;;;;;;;5.97;82.97;101252.19;6113178;28;20265;-64
2022/12/26 17:29:57;;;;;;;3.97;2.13;;;;;;;5.94;83.22;101243.50;6108884;28;20223;-66
2022/12/26 17:33:20;;;;;;;4.73;2.30;;;;;;;6.02;83.15;101247.41;6100823;28;20779;-66
2022/12/26 17:36:41;;;;;;;6.53;2.90;;;;;;;5.98;83.26;101242.34;6114659;28;20613;-65
2022/12/26 17:40:08;;;;;;;3.27;1.70;;;;;;;6.02;83.02;101247.41;6106112;28;20232;-65
2022/12/26 17:43:33;;;;;;;5.37;1.37;;;;;;;6.01;82.80;101243.00;6093517;28;20259;-66
2022/12/26 17:46:53;;;;;;;3.10;1.93;;;;;;;5.94;82.89;101246.19;6108760;28;20231;-66
2022/12/26 17:50:14;;;;;;;8.07;2.20;;;;;;;5.96;82.41;101254.97;6105990;28;20545;-65
2022/12/26 17:53:37;;;;;;;4.53;1.20;;;;;;;5.85;82.30;101255.66;6108379;28;20263;-65
2022/12/26 17:56:59;;;;;;;5.67;1.60;;;;;;;5.86;81.64;101245.81;6116321;28;20235;-65
2022/12/26 18:00:24;;;;;;;5.27;1.30;;;;;;;5.84;81.18;101248.56;6108572;28;20798;-68
2022/12/26 18:03:44;;;;;;;5.10;1.87;;;;;;;5.77;81.64;101257.06;6102485;28;20235;-65
2022/12/26 18:07:05;;;;;;;3.20;1.50;;;;;;;5.72;81.38;101256.47;6115542;28;20880;-65
2022/12/26 18:10:29;;;;;;;2.27;1.33;;;;;;;5.71;81.47;101268.13;6114273;28;20527;-64